Terminal Aerodrome Forecast
Issued by NWS

Home | Current Version | Previous Version | Text Only | Print | Product List | Glossary On
Versions: 1 2 3 4 5 6 7 8 9 10 11 12 13 14 15 16 17 18 19 20 21 22 23 24 25 26
000
FTUS43 KFGF 161139
TAFTVF
TAF
KTVF 161139Z 1612/1712 11012KT P6SM OVC028
     FM161500 14006KT P6SM OVC010
     FM161700 16006KT P6SM OVC008
     FM161900 20006KT P6SM OVC008
     FM162100 24006KT P6SM OVC008
     FM170300 22004KT P6SM BKN025
     FM170800 21006KT P6SM BKN003
     FM170900 22006KT P6SM SCT008=

USA.gov is the U.S. government's official web portal to all federal, state and local government web resources and services.